Landels-Hill Big Creek Reserve Entrance, California Weather observations

Data are for 10 minute period ending at time listed.
 Day   Time   Solar   Ave.   Ave.  Ave.  Vector  Max.   Baro.   Total    
  of    of     Rad.   Air    Rel.  Wind   Wind   Wind  Press.  Precip.   
Year   Day            Temp.  Hum.  Speed  Dir.   Gust                    
2015   (PST)  Kw/m2    F      %     mph   deg.    mph    mb.     in.     
-------------------------------------------------------------------------
 183   19:00   0.01   61.0    91    0.3   237     1.8   1011.0    0.00 
 183   19:10   0.01   60.9    92    1.2   151     3.1   1010.9    0.00 
 183   19:20   0.01   60.7    92    1.6   185     3.8   1010.9    0.00 
 183   19:30   0.01   60.7    93    0.2   215     1.1   1010.9    0.00 
 183   19:40   0.00   60.7    92    0.3   196     1.8   1010.9    0.00 
 183   19:50   0.00   60.7    92    0.7   200     2.3   1010.9    0.00 
 183   20:00   0.00   60.5    92    0.3   224     1.2   1010.8    0.00 
 183   20:10   0.00   60.3    93    1.0     7     3.9   1010.6    0.00 
 183   20:20   0.00   60.2    93    1.0   196     2.8   1010.6    0.00 
 183   20:30   0.00   60.1    93    0.3   261     1.2   1010.7    0.00 
 183   20:40   0.00   60.0    93    0.2   234     1.4   1010.8    0.00 
 183   20:50   0.00   59.8    93    0.2   328     1.3   1010.9    0.00 
 183   21:00   0.00   59.4    93    0.7    76     2.6   1010.8    0.00 
 183   21:10   0.00   59.6    93    0.2   282     2.9   1010.6    0.00 
 183   21:20   0.00   59.6    93    0.2     2     0.9   1010.6    0.00 
 183   21:30   0.00   59.5    93    0.1   280     1.1   1010.4    0.00 
 183   21:40   0.00   59.2    93    0.0   107     0.7   1010.5    0.00 
 183   21:50   0.00   58.9    93    0.2   250     0.9   1010.7    0.00 
 183   22:00   0.00   58.7    93    0.3    21     1.7   1010.8    0.00 
 183   22:10   0.00   58.7    94    0.3   112     1.4   1010.8    0.00 
 183   22:20   0.00   58.7    94    0.0   227     0.7   1010.8    0.00 
 183   22:30   0.00   58.7    94    1.1   254     3.9   1010.9    0.00 
 183   22:40   0.00   58.5    94    0.2   286     2.0   1011.0    0.00 
 183   22:50   0.00   58.5    94    0.0     0     0.0   1011.2    0.00 
 183   23:00   0.00   58.4    94    1.4   266     4.7   1011.3    0.00 
 183   23:10   0.00   58.4    95    0.7   287     2.7   1011.6    0.00 
 183   23:20   0.00   58.6    96    0.2   298     2.0   1011.6    0.00 
 183   23:30   0.00   58.6    96    0.2   343     1.3   1011.6    0.00 
 183   23:40   0.00   58.7    96    0.1   355     1.1   1011.6    0.00 
 183   23:50   0.00   58.8    96    0.1   238     1.5   1011.4    0.00 
 184    0:00   0.00   58.4    96    0.8   168     2.3   1011.5    0.00 
 184    0:10   0.00   58.3    96    0.1   218     0.9   1011.6    0.00 
 184    0:20   0.00   58.3    96    0.0     0     0.0   1011.7    0.00 
 184    0:30   0.00   58.4    96    0.1   151     1.7   1011.8    0.00 
 184    0:40   0.00   58.4    96    0.0   255     0.3   1011.7    0.00 
 184    0:50   0.00   58.3    96    0.5    36     2.3   1011.4    0.00 
 184    1:00   0.00   58.0    96    1.2   212     3.2   1011.2    0.00 
 184    1:10   0.00   58.0    96    0.2   206     1.5   1010.9    0.00 
 184    1:20   0.00   57.9    96    0.2   191     1.0   1010.8    0.00 
 184    1:30   0.00   57.8    96    0.0   227     0.8   1010.6    0.00 
 184    1:40   0.00   57.6    96    0.2    29     1.5   1010.5    0.00 
 184    1:50   0.00   57.0    96    0.2   118     1.0   1010.6    0.00 
 184    2:00   0.00   56.9    96    0.1   344     1.2   1010.7    0.00 
 184    2:10   0.00   56.9    96    1.0     2     2.4   1010.6    0.00 
 184    2:20   0.00   56.6    96    0.3    48     1.2   1010.5    0.00 
 184    2:30   0.00   56.3    96    0.3   353     1.1   1010.3    0.00 
 184    2:40   0.00   56.1    96    0.1   297     1.2   1010.4    0.00 
 184    2:50   0.00   56.2    96    0.1    86     1.0   1010.5    0.00 
 184    3:00   0.00   56.3    96    1.1    10     2.8   1010.6    0.00 
 184    3:10   0.00   55.8    96    1.4    34     4.2   1010.4    0.00 
 184    3:20   0.00   55.9    96    1.4    53     3.7   1010.1    0.00 
 184    3:30   0.00   56.0    95    0.6    41     2.1   1009.9    0.00 
 184    3:40   0.00   55.9    95    0.7     2     3.2   1010.1    0.00 
 184    3:50   0.00   56.6    96    2.1   240     6.5   1010.8    0.00 
 184    4:00   0.00   56.9    96    1.2   118     3.7   1011.1    0.00 
 184    4:10   0.00   56.9    96    0.6    19     2.0   1011.1    0.00 
 184    4:20   0.00   56.7    96    1.2    22     4.7   1010.7    0.00 
 184    4:30   0.00   56.3    96    1.5    32     4.4   1010.4    0.00 
 184    4:40   0.00   56.5    96    1.9   255     4.7   1010.6    0.00 
 184    4:50   0.00   56.9    96    1.7   275     5.0   1011.0    0.00 
 184    5:00   0.00   56.9    96    1.2   286     4.5   1011.1    0.00 
 184    5:10   0.01   56.9    96    0.3    95     2.0   1011.1    0.00 
 184    5:20   0.01   56.8    96    0.5   192     2.0   1011.2    0.00 
 184    5:30   0.01   57.0    96    0.3   218     1.2   1011.5    0.00 
 184    5:40   0.01   57.0    96    0.4   158     2.0   1011.7    0.00 
 184    5:50   0.02   57.1    96    0.2   188     1.6   1011.9    0.00 
 184    6:00   0.04   57.4    96    0.0     3     0.9   1011.9    0.00 
 184    6:10   0.04   57.6    96    0.2   262     2.0   1011.8    0.00 
 184    6:20   0.05   57.4    96    0.3   276     1.2   1011.7    0.00 
 184    6:30   0.05   57.7    96    0.2   195     1.6   1012.0    0.00 
 184    6:40   0.06   57.7    96    0.1   317     0.7   1011.9    0.00 
 184    6:50   0.06   57.8    95    0.2   181     1.2   1011.7    0.00 
 184    7:00   0.09   57.8    95    1.0   254     2.2   1011.9    0.00 
 184    7:10   0.10   57.9    95    0.1   204     0.8   1011.8    0.00 
 184    7:20   0.08   58.2    94    0.4   184     2.4   1011.7    0.00 
 184    7:30   0.10   58.2    94    1.2   200     2.6   1011.7    0.00 
 184    7:40   0.13   58.3    93    1.4   206     2.9   1011.7    0.00 
 184    7:50   0.11   58.4    93    2.0   159     3.6   1011.7    0.00 
 184    8:00   0.11   58.2    92    2.7   148     4.6   1011.8    0.00 
 184    8:10   0.13   57.8    92    2.9   128     4.5   1011.8    0.00 
 184    8:20   0.17   58.1    93    1.2   176     3.9   1011.9    0.00 
 184    8:30   0.10   58.8    92    1.0   206     2.3   1011.9    0.00 
 184    8:40   0.07   58.4    91    2.1   148     4.0   1011.9    0.00 
 184    8:50   0.12   58.1    92    2.8   145     6.9   1011.7    0.00 
 184    9:00   0.13   58.5    91    3.1   165     6.7   1011.7    0.00 
 184    9:10   0.17   58.4    91    2.2   142     5.3   1011.9    0.00 
 184    9:20   0.57   59.5    91    1.5   142     3.5   1011.7    0.00 
 184    9:30   0.73   61.2    85    2.4   151     4.7   1011.5    0.00 
 184    9:40   0.76   61.3    84    2.6   138     5.0   1011.4    0.00 
 184    9:50   0.59   61.6    82    3.5   143     6.1   1011.5    0.00 
 184   10:00   0.68   61.2    84    2.7   135     5.9   1011.4    0.00 
 184   10:10   0.62   61.0    85    2.2   163     5.0   1011.6    0.00 
 184   10:20   0.87   61.9    83    2.4   155     4.5   1011.7    0.00 
 184   10:30   0.85   62.9    81    1.8   196     4.2   1011.9    0.00 
 184   10:40   0.89   62.9    80    2.3   201     5.0   1012.0    0.00 
 184   10:50   0.78   62.7    80    2.5   150     5.2   1012.0    0.00 
 184   11:00   0.64   61.2    84    3.2   136     5.4   1012.0    0.00 
 184   11:10   0.56   60.5    86    2.9   140     5.2   1011.7    0.00 
 184   11:20   0.76   61.8    85    2.1   139     5.3   1011.4    0.00 
 184   11:30   0.88   62.6    82    3.8   186     8.2   1011.3    0.00 
 184   11:40   0.86   63.5    79    2.3   160     6.6   1011.4    0.00 
 184   11:50   0.65   62.4    82    2.3   144     5.8   1011.6    0.00 
 184   12:00   0.84   64.5    78    1.4   185     3.4   1011.6    0.00 
 184   12:10   0.99   65.5    75    1.9   177     6.2   1011.7    0.00 
 184   12:20   1.13   66.0    73    1.9   209     5.8   1011.7    0.00 
 184   12:30   0.99   65.5    74    2.6   191     7.8   1011.6    0.00 
 184   12:40   0.95   64.2    78    3.1   180     6.4   1011.4    0.00 
 184   12:50   0.96   64.4    78    3.0   202     7.0   1011.2    0.00 
 184   13:00   0.95   64.7    77    3.6   206     8.6   1011.0    0.00 
 184   13:10   0.97   65.2    77    3.5   213     8.5   1010.9    0.00 
 184   13:20   1.13   64.3    79    3.5   189     7.7   1011.0    0.00 
 184   13:30   1.00   64.8    77    3.1   184     8.0   1011.0    0.00 
 184   13:40   0.71   64.7    78    2.0   175     4.4   1011.3    0.00 
 184   13:50   0.92   64.3    79    1.5   210     4.2   1011.3    0.00 
 184   14:00   0.96   65.5    76    1.2   186     3.3   1011.3    0.00 
 184   14:10   0.80   65.2    76    1.7    63     4.7   1011.3    0.00 
 184   14:20   0.53   62.6    83    3.1    62     6.6   1011.2    0.00 
 184   14:30   0.54   62.1    85    2.7   125     6.5   1011.1    0.00 
 184   14:40   0.45   62.2    85    2.4    98     6.3   1010.9    0.00 
 184   14:50   0.51   62.1    86    2.8   100     7.1   1010.6    0.00 
 184   15:00   0.60   62.2    85    3.7   120     7.5   1010.5    0.00 
 184   15:10   0.49   61.8    86    3.0   128     7.9   1010.4    0.00 
 184   15:20   0.42   61.4    87    3.5   107     8.3   1010.3    0.00 
 184   15:30   0.49   62.4    85    2.3   162     5.2   1010.1    0.00 
 184   15:40   0.40   62.3    85    2.5   175     7.5   1010.0    0.00 
 184   15:50   0.40   62.2    86    3.3   154     9.0   1009.9    0.00 
 184   16:00   0.33   62.1    86    2.5   168     6.4   1009.9    0.00 
 184   16:10   0.29   62.1    86    3.0   186     7.7   1009.8    0.00 
 184   16:20   0.22   62.0    86    2.1   166     4.5   1009.7    0.00 
 184   16:30   0.23   61.4    88    2.4   197     6.1   1009.4    0.00 
 184   16:40   0.21   61.3    88    1.7   176     5.3   1009.3    0.00 
 184   16:50   0.18   61.0    89    1.9   192     5.0   1009.2    0.00 
 184   17:00   0.16   60.7    90    2.2   159     5.8   1009.2    0.00 
 184   17:10   0.14   60.7    91    2.2   165     6.7   1009.0    0.00 
 184   17:20   0.13   60.0    92    4.1   153     8.6   1008.9    0.00 
 184   17:30   0.11   59.9    93    3.1   159     8.3   1008.9    0.00 
 184   17:40   0.10   60.0    93    3.1   171     6.6   1008.9    0.00 
 184   17:50   0.10   60.1    92    3.1   169     7.2   1008.9    0.00 
 184   18:00   0.10   60.5    92    2.8   180     5.8   1008.8    0.00 
 184   18:10   0.09   60.5    91    2.8   202     7.4   1008.8    0.00 
 184   18:20   0.08   60.4    91    2.6   184     6.2   1008.7    0.00 
 184   18:30   0.06   60.5    91    2.5   193     7.2   1008.8    0.00 
 184   18:40   0.04   60.3    91    2.8   171     6.5   1008.9    0.00 
 184   18:50   0.03   60.4    92    1.5   212     4.9   1008.8    0.00 

Return to Big Creek Reserve Entrance graphs page.


Western Regional Climate Center,wrcc@dri.edu